sensor_id;sensor_type;location;lat;lon;timestamp;P1;durP1;ratioP1;P2;durP2;ratioP2
5135;SDS011;2586;48.710;9.202;2023-02-28T00:00:19;2.10;;;1.33;;
5135;SDS011;2586;48.710;9.202;2023-02-28T00:02:46;6.63;;;1.80;;
5135;SDS011;2586;48.710;9.202;2023-02-28T00:05:12;1.60;;;1.50;;
5135;SDS011;2586;48.710;9.202;2023-02-28T00:07:39;4.27;;;1.57;;
5135;SDS011;2586;48.710;9.202;2023-02-28T00:10:06;3.90;;;1.73;;
5135;SDS011;2586;48.710;9.202;2023-02-28T00:12:34;3.23;;;1.90;;
5135;SDS011;2586;48.710;9.202;2023-02-28T00:15:00;4.33;;;1.63;;
5135;SDS011;2586;48.710;9.202;2023-02-28T00:17:26;7.33;;;2.00;;
5135;SDS011;2586;48.710;9.202;2023-02-28T00:19:51;2.10;;;1.60;;
5135;SDS011;2586;48.710;9.202;2023-02-28T00:22:17;2.37;;;1.47;;
5135;SDS011;2586;48.710;9.202;2023-02-28T00:24:44;2.97;;;1.70;;
5135;SDS011;2586;48.710;9.202;2023-02-28T00:27:10;2.10;;;1.30;;
5135;SDS011;2586;48.710;9.202;2023-02-28T00:29:36;2.17;;;1.77;;
5135;SDS011;2586;48.710;9.202;2023-02-28T00:32:02;1.40;;;1.30;;
5135;SDS011;2586;48.710;9.202;2023-02-28T00:34:28;2.50;;;1.90;;
5135;SDS011;2586;48.710;9.202;2023-02-28T00:36:54;1.90;;;1.30;;
5135;SDS011;2586;48.710;9.202;2023-02-28T00:39:19;4.50;;;1.50;;
5135;SDS011;2586;48.710;9.202;2023-02-28T00:41:45;1.47;;;1.20;;
5135;SDS011;2586;48.710;9.202;2023-02-28T00:44:10;1.60;;;1.50;;
5135;SDS011;2586;48.710;9.202;2023-02-28T00:46:36;3.07;;;1.10;;
5135;SDS011;2586;48.710;9.202;2023-02-28T00:49:02;5.13;;;1.90;;
5135;SDS011;2586;48.710;9.202;2023-02-28T00:51:27;4.67;;;2.13;;
5135;SDS011;2586;48.710;9.202;2023-02-28T00:53:53;2.40;;;1.73;;
5135;SDS011;2586;48.710;9.202;2023-02-28T00:56:19;5.30;;;1.57;;
5135;SDS011;2586;48.710;9.202;2023-02-28T00:58:45;4.70;;;1.90;;
5135;SDS011;2586;48.710;9.202;2023-02-28T01:01:10;3.77;;;1.93;;
5135;SDS011;2586;48.710;9.202;2023-02-28T01:03:36;4.50;;;1.83;;
5135;SDS011;2586;48.710;9.202;2023-02-28T01:06:02;4.03;;;1.80;;
5135;SDS011;2586;48.710;9.202;2023-02-28T01:08:27;3.37;;;1.73;;
5135;SDS011;2586;48.710;9.202;2023-02-28T01:10:53;2.20;;;1.50;;
5135;SDS011;2586;48.710;9.202;2023-02-28T01:13:19;2.80;;;1.53;;
5135;SDS011;2586;48.710;9.202;2023-02-28T01:15:46;4.03;;;1.67;;
5135;SDS011;2586;48.710;9.202;2023-02-28T01:18:16;2.77;;;2.00;;
5135;SDS011;2586;48.710;9.202;2023-02-28T01:20:42;5.37;;;1.70;;
5135;SDS011;2586;48.710;9.202;2023-02-28T01:23:07;3.33;;;1.80;;
5135;SDS011;2586;48.710;9.202;2023-02-28T01:25:36;4.60;;;1.20;;
5135;SDS011;2586;48.710;9.202;2023-02-28T01:28:03;4.40;;;2.10;;
5135;SDS011;2586;48.710;9.202;2023-02-28T01:30:29;6.90;;;1.80;;
5135;SDS011;2586;48.710;9.202;2023-02-28T01:32:55;2.43;;;1.43;;
5135;SDS011;2586;48.710;9.202;2023-02-28T01:35:21;7.30;;;2.27;;
5135;SDS011;2586;48.710;9.202;2023-02-28T01:37:46;3.13;;;1.50;;
5135;SDS011;2586;48.710;9.202;2023-02-28T01:40:12;6.50;;;2.37;;
5135;SDS011;2586;48.710;9.202;2023-02-28T01:42:38;6.67;;;1.33;;
5135;SDS011;2586;48.710;9.202;2023-02-28T01:45:23;3.57;;;2.03;;
5135;SDS011;2586;48.710;9.202;2023-02-28T01:47:52;7.73;;;2.50;;
5135;SDS011;2586;48.710;9.202;2023-02-28T01:50:25;5.43;;;2.23;;
5135;SDS011;2586;48.710;9.202;2023-02-28T01:52:54;2.50;;;1.60;;
5135;SDS011;2586;48.710;9.202;2023-02-28T01:55:22;4.50;;;2.43;;
5135;SDS011;2586;48.710;9.202;2023-02-28T01:57:54;2.40;;;1.90;;
5135;SDS011;2586;48.710;9.202;2023-02-28T02:00:24;2.10;;;1.87;;
5135;SDS011;2586;48.710;9.202;2023-02-28T02:02:53;5.07;;;2.13;;
5135;SDS011;2586;48.710;9.202;2023-02-28T02:05:26;2.00;;;1.80;;
5135;SDS011;2586;48.710;9.202;2023-02-28T02:07:56;6.00;;;2.20;;
5135;SDS011;2586;48.710;9.202;2023-02-28T02:10:31;4.53;;;2.47;;
5135;SDS011;2586;48.710;9.202;2023-02-28T02:18:18;2.20;;;2.00;;
5135;SDS011;2586;48.710;9.202;2023-02-28T02:32:17;2.13;;;1.90;;
5135;SDS011;2586;48.710;9.202;2023-02-28T02:34:52;2.33;;;2.13;;
5135;SDS011;2586;48.710;9.202;2023-02-28T02:37:40;3.83;;;2.40;;
5135;SDS011;2586;48.710;9.202;2023-02-28T02:40:22;2.23;;;2.13;;
5135;SDS011;2586;48.710;9.202;2023-02-28T02:42:56;2.80;;;2.00;;
5135;SDS011;2586;48.710;9.202;2023-02-28T02:45:34;3.47;;;1.90;;
5135;SDS011;2586;48.710;9.202;2023-02-28T02:48:05;2.67;;;2.13;;
5135;SDS011;2586;48.710;9.202;2023-02-28T02:50:38;4.83;;;2.17;;
5135;SDS011;2586;48.710;9.202;2023-02-28T02:53:07;6.30;;;2.20;;
5135;SDS011;2586;48.710;9.202;2023-02-28T02:55:34;5.60;;;2.23;;
5135;SDS011;2586;48.710;9.202;2023-02-28T02:58:06;2.53;;;2.27;;
5135;SDS011;2586;48.710;9.202;2023-02-28T03:00:39;3.97;;;2.40;;
5135;SDS011;2586;48.710;9.202;2023-02-28T03:03:08;5.83;;;3.20;;
5135;SDS011;2586;48.710;9.202;2023-02-28T03:05:39;5.57;;;1.90;;
5135;SDS011;2586;48.710;9.202;2023-02-28T03:08:10;4.20;;;2.47;;
5135;SDS011;2586;48.710;9.202;2023-02-28T03:21:35;3.70;;;1.90;;
5135;SDS011;2586;48.710;9.202;2023-02-28T03:24:10;6.13;;;2.40;;
5135;SDS011;2586;48.710;9.202;2023-02-28T03:26:42;5.53;;;2.33;;
5135;SDS011;2586;48.710;9.202;2023-02-28T03:31:48;6.10;;;2.63;;
5135;SDS011;2586;48.710;9.202;2023-02-28T03:34:19;2.37;;;1.80;;
5135;SDS011;2586;48.710;9.202;2023-02-28T03:36:52;10.67;;;7.20;;
5135;SDS011;2586;48.710;9.202;2023-02-28T03:39:21;4.83;;;3.10;;
5135;SDS011;2586;48.710;9.202;2023-02-28T03:41:57;6.27;;;3.13;;
5135;SDS011;2586;48.710;9.202;2023-02-28T03:44:29;2.57;;;1.93;;
5135;SDS011;2586;48.710;9.202;2023-02-28T03:47:08;4.73;;;2.80;;
5135;SDS011;2586;48.710;9.202;2023-02-28T03:49:48;3.20;;;2.60;;
5135;SDS011;2586;48.710;9.202;2023-02-28T03:52:34;6.93;;;2.60;;
5135;SDS011;2586;48.710;9.202;2023-02-28T03:55:04;3.80;;;2.53;;
5135;SDS011;2586;48.710;9.202;2023-02-28T03:57:43;3.50;;;2.20;;
5135;SDS011;2586;48.710;9.202;2023-02-28T04:00:30;5.20;;;2.80;;
5135;SDS011;2586;48.710;9.202;2023-02-28T04:03:00;3.53;;;2.80;;
5135;SDS011;2586;48.710;9.202;2023-02-28T04:05:25;5.10;;;3.00;;
5135;SDS011;2586;48.710;9.202;2023-02-28T04:07:52;6.73;;;3.03;;
5135;SDS011;2586;48.710;9.202;2023-02-28T04:10:19;8.80;;;3.10;;
5135;SDS011;2586;48.710;9.202;2023-02-28T04:12:45;5.47;;;3.13;;
5135;SDS011;2586;48.710;9.202;2023-02-28T04:15:10;4.27;;;3.00;;
5135;SDS011;2586;48.710;9.202;2023-02-28T04:17:36;3.87;;;2.87;;
5135;SDS011;2586;48.710;9.202;2023-02-28T04:20:02;4.80;;;3.30;;
5135;SDS011;2586;48.710;9.202;2023-02-28T04:22:28;6.83;;;3.40;;
5135;SDS011;2586;48.710;9.202;2023-02-28T04:24:54;5.70;;;3.00;;
5135;SDS011;2586;48.710;9.202;2023-02-28T04:27:20;6.03;;;3.50;;
5135;SDS011;2586;48.710;9.202;2023-02-28T04:29:46;3.60;;;3.03;;
5135;SDS011;2586;48.710;9.202;2023-02-28T04:32:12;6.00;;;2.80;;
5135;SDS011;2586;48.710;9.202;2023-02-28T04:34:38;5.67;;;3.23;;
5135;SDS011;2586;48.710;9.202;2023-02-28T04:37:04;3.50;;;3.20;;
5135;SDS011;2586;48.710;9.202;2023-02-28T04:39:30;3.83;;;3.10;;
5135;SDS011;2586;48.710;9.202;2023-02-28T04:41:59;5.70;;;2.90;;
5135;SDS011;2586;48.710;9.202;2023-02-28T04:44:25;5.67;;;3.20;;
5135;SDS011;2586;48.710;9.202;2023-02-28T04:46:50;3.80;;;2.83;;
5135;SDS011;2586;48.710;9.202;2023-02-28T04:49:16;4.83;;;3.47;;
5135;SDS011;2586;48.710;9.202;2023-02-28T04:51:41;6.63;;;4.13;;
5135;SDS011;2586;48.710;9.202;2023-02-28T04:54:07;6.33;;;4.10;;
5135;SDS011;2586;48.710;9.202;2023-02-28T04:56:33;5.47;;;3.30;;
5135;SDS011;2586;48.710;9.202;2023-02-28T04:58:59;4.73;;;4.03;;
5135;SDS011;2586;48.710;9.202;2023-02-28T05:01:28;6.20;;;3.90;;
5135;SDS011;2586;48.710;9.202;2023-02-28T05:03:58;4.70;;;3.50;;
5135;SDS011;2586;48.710;9.202;2023-02-28T05:06:26;4.83;;;3.83;;
5135;SDS011;2586;48.710;9.202;2023-02-28T05:08:54;10.70;;;3.10;;
5135;SDS011;2586;48.710;9.202;2023-02-28T05:13:50;5.37;;;3.40;;
5135;SDS011;2586;48.710;9.202;2023-02-28T05:16:17;5.50;;;4.10;;
5135;SDS011;2586;48.710;9.202;2023-02-28T05:18:43;3.60;;;3.30;;
5135;SDS011;2586;48.710;9.202;2023-02-28T05:21:23;4.67;;;3.70;;
5135;SDS011;2586;48.710;9.202;2023-02-28T05:23:52;7.67;;;3.93;;
5135;SDS011;2586;48.710;9.202;2023-02-28T05:26:18;6.37;;;3.87;;
5135;SDS011;2586;48.710;9.202;2023-02-28T05:28:44;4.60;;;3.50;;
5135;SDS011;2586;48.710;9.202;2023-02-28T05:31:10;3.73;;;3.20;;
5135;SDS011;2586;48.710;9.202;2023-02-28T05:33:36;8.03;;;3.30;;
5135;SDS011;2586;48.710;9.202;2023-02-28T05:36:02;8.60;;;4.47;;
5135;SDS011;2586;48.710;9.202;2023-02-28T05:38:29;9.27;;;4.07;;
5135;SDS011;2586;48.710;9.202;2023-02-28T05:40:54;6.37;;;3.80;;
5135;SDS011;2586;48.710;9.202;2023-02-28T05:43:20;6.23;;;3.63;;
5135;SDS011;2586;48.710;9.202;2023-02-28T05:45:45;6.10;;;3.70;;
5135;SDS011;2586;48.710;9.202;2023-02-28T05:48:11;6.97;;;4.30;;
5135;SDS011;2586;48.710;9.202;2023-02-28T05:50:36;4.00;;;3.60;;
5135;SDS011;2586;48.710;9.202;2023-02-28T05:53:02;6.37;;;4.80;;
5135;SDS011;2586;48.710;9.202;2023-02-28T05:55:27;4.93;;;3.60;;
5135;SDS011;2586;48.710;9.202;2023-02-28T05:57:53;13.93;;;4.13;;
5135;SDS011;2586;48.710;9.202;2023-02-28T06:00:19;4.77;;;3.60;;
5135;SDS011;2586;48.710;9.202;2023-02-28T06:02:44;7.00;;;3.30;;
5135;SDS011;2586;48.710;9.202;2023-02-28T06:05:13;6.10;;;4.37;;
5135;SDS011;2586;48.710;9.202;2023-02-28T06:07:40;9.40;;;4.87;;
5135;SDS011;2586;48.710;9.202;2023-02-28T06:10:06;6.67;;;4.30;;
5135;SDS011;2586;48.710;9.202;2023-02-28T06:12:32;4.50;;;3.70;;
5135;SDS011;2586;48.710;9.202;2023-02-28T06:14:57;10.53;;;4.60;;
5135;SDS011;2586;48.710;9.202;2023-02-28T06:17:23;6.70;;;4.70;;
5135;SDS011;2586;48.710;9.202;2023-02-28T06:19:49;8.17;;;4.70;;
5135;SDS011;2586;48.710;9.202;2023-02-28T06:22:14;6.90;;;4.20;;
5135;SDS011;2586;48.710;9.202;2023-02-28T06:24:40;7.23;;;4.10;;
5135;SDS011;2586;48.710;9.202;2023-02-28T06:27:05;6.83;;;5.40;;
5135;SDS011;2586;48.710;9.202;2023-02-28T06:29:32;6.47;;;5.20;;
5135;SDS011;2586;48.710;9.202;2023-02-28T06:31:58;4.90;;;4.27;;
5135;SDS011;2586;48.710;9.202;2023-02-28T06:34:23;8.70;;;4.93;;
5135;SDS011;2586;48.710;9.202;2023-02-28T06:36:50;10.83;;;5.87;;
5135;SDS011;2586;48.710;9.202;2023-02-28T06:39:16;10.10;;;4.73;;
5135;SDS011;2586;48.710;9.202;2023-02-28T06:41:42;9.63;;;4.40;;
5135;SDS011;2586;48.710;9.202;2023-02-28T06:44:14;6.03;;;4.37;;
5135;SDS011;2586;48.710;9.202;2023-02-28T06:46:41;6.40;;;4.87;;
5135;SDS011;2586;48.710;9.202;2023-02-28T06:49:08;11.10;;;4.17;;
5135;SDS011;2586;48.710;9.202;2023-02-28T06:51:34;9.03;;;5.10;;
5135;SDS011;2586;48.710;9.202;2023-02-28T06:54:01;6.47;;;4.93;;
5135;SDS011;2586;48.710;9.202;2023-02-28T06:56:27;4.70;;;4.27;;
5135;SDS011;2586;48.710;9.202;2023-02-28T06:58:52;6.70;;;4.67;;
5135;SDS011;2586;48.710;9.202;2023-02-28T07:01:18;7.73;;;5.43;;
5135;SDS011;2586;48.710;9.202;2023-02-28T07:03:44;8.53;;;5.10;;
5135;SDS011;2586;48.710;9.202;2023-02-28T07:06:10;10.80;;;5.40;;
5135;SDS011;2586;48.710;9.202;2023-02-28T07:08:36;6.20;;;4.90;;
5135;SDS011;2586;48.710;9.202;2023-02-28T07:11:02;12.30;;;5.60;;
5135;SDS011;2586;48.710;9.202;2023-02-28T07:13:28;9.80;;;5.27;;
5135;SDS011;2586;48.710;9.202;2023-02-28T07:15:54;12.07;;;5.10;;
5135;SDS011;2586;48.710;9.202;2023-02-28T07:18:20;7.67;;;5.07;;
5135;SDS011;2586;48.710;9.202;2023-02-28T07:20:46;9.67;;;5.70;;
5135;SDS011;2586;48.710;9.202;2023-02-28T07:23:11;8.10;;;5.20;;
5135;SDS011;2586;48.710;9.202;2023-02-28T07:25:37;8.57;;;5.47;;
5135;SDS011;2586;48.710;9.202;2023-02-28T07:28:02;8.00;;;5.63;;
5135;SDS011;2586;48.710;9.202;2023-02-28T07:30:28;6.40;;;5.67;;
5135;SDS011;2586;48.710;9.202;2023-02-28T07:32:53;7.27;;;5.20;;
5135;SDS011;2586;48.710;9.202;2023-02-28T07:35:20;6.97;;;4.93;;
5135;SDS011;2586;48.710;9.202;2023-02-28T07:37:46;16.63;;;5.77;;
5135;SDS011;2586;48.710;9.202;2023-02-28T07:40:12;10.77;;;5.30;;
5135;SDS011;2586;48.710;9.202;2023-02-28T07:42:39;8.60;;;5.87;;
5135;SDS011;2586;48.710;9.202;2023-02-28T07:45:05;6.23;;;5.20;;
5135;SDS011;2586;48.710;9.202;2023-02-28T07:47:32;12.17;;;5.70;;
5135;SDS011;2586;48.710;9.202;2023-02-28T07:49:58;6.80;;;4.60;;
5135;SDS011;2586;48.710;9.202;2023-02-28T07:52:24;16.83;;;6.77;;
5135;SDS011;2586;48.710;9.202;2023-02-28T07:54:50;8.03;;;5.20;;
5135;SDS011;2586;48.710;9.202;2023-02-28T07:57:16;10.23;;;5.73;;
5135;SDS011;2586;48.710;9.202;2023-02-28T07:59:42;8.43;;;6.43;;
5135;SDS011;2586;48.710;9.202;2023-02-28T08:02:12;8.20;;;5.73;;
5135;SDS011;2586;48.710;9.202;2023-02-28T08:04:39;7.97;;;5.47;;
5135;SDS011;2586;48.710;9.202;2023-02-28T08:07:05;9.63;;;5.60;;
5135;SDS011;2586;48.710;9.202;2023-02-28T08:09:30;9.20;;;6.20;;
5135;SDS011;2586;48.710;9.202;2023-02-28T08:11:56;8.87;;;6.17;;
5135;SDS011;2586;48.710;9.202;2023-02-28T08:14:21;9.43;;;6.07;;
5135;SDS011;2586;48.710;9.202;2023-02-28T08:16:47;10.13;;;5.70;;
5135;SDS011;2586;48.710;9.202;2023-02-28T08:19:13;11.83;;;5.57;;
5135;SDS011;2586;48.710;9.202;2023-02-28T08:21:38;11.03;;;6.57;;
5135;SDS011;2586;48.710;9.202;2023-02-28T08:24:04;8.80;;;5.63;;
5135;SDS011;2586;48.710;9.202;2023-02-28T08:26:30;10.33;;;6.00;;
5135;SDS011;2586;48.710;9.202;2023-02-28T08:28:56;10.17;;;5.60;;
5135;SDS011;2586;48.710;9.202;2023-02-28T08:31:22;13.00;;;5.97;;
5135;SDS011;2586;48.710;9.202;2023-02-28T08:33:47;10.00;;;5.30;;
5135;SDS011;2586;48.710;9.202;2023-02-28T08:36:16;12.17;;;6.53;;
5135;SDS011;2586;48.710;9.202;2023-02-28T08:38:42;9.63;;;6.80;;
5135;SDS011;2586;48.710;9.202;2023-02-28T08:41:09;8.07;;;5.97;;
5135;SDS011;2586;48.710;9.202;2023-02-28T08:43:36;9.70;;;6.90;;
5135;SDS011;2586;48.710;9.202;2023-02-28T08:46:05;13.00;;;6.30;;
5135;SDS011;2586;48.710;9.202;2023-02-28T08:48:32;8.80;;;6.00;;
5135;SDS011;2586;48.710;9.202;2023-02-28T08:51:00;7.97;;;5.80;;
5135;SDS011;2586;48.710;9.202;2023-02-28T08:53:27;8.17;;;5.73;;
5135;SDS011;2586;48.710;9.202;2023-02-28T08:55:57;7.97;;;5.40;;
5135;SDS011;2586;48.710;9.202;2023-02-28T08:58:23;8.87;;;6.30;;
5135;SDS011;2586;48.710;9.202;2023-02-28T09:00:48;13.70;;;6.03;;
5135;SDS011;2586;48.710;9.202;2023-02-28T09:03:15;8.40;;;5.33;;
5135;SDS011;2586;48.710;9.202;2023-02-28T09:05:40;10.07;;;6.40;;
5135;SDS011;2586;48.710;9.202;2023-02-28T09:08:06;9.90;;;5.83;;
5135;SDS011;2586;48.710;9.202;2023-02-28T09:10:31;10.93;;;6.33;;
5135;SDS011;2586;48.710;9.202;2023-02-28T09:12:57;10.33;;;7.17;;
5135;SDS011;2586;48.710;9.202;2023-02-28T09:15:22;7.23;;;5.57;;
5135;SDS011;2586;48.710;9.202;2023-02-28T09:17:48;9.90;;;5.40;;
5135;SDS011;2586;48.710;9.202;2023-02-28T09:20:15;10.17;;;6.83;;
5135;SDS011;2586;48.710;9.202;2023-02-28T09:22:40;13.90;;;6.20;;
5135;SDS011;2586;48.710;9.202;2023-02-28T09:25:06;9.50;;;6.53;;
5135;SDS011;2586;48.710;9.202;2023-02-28T09:27:32;10.23;;;4.93;;
5135;SDS011;2586;48.710;9.202;2023-02-28T09:29:57;11.90;;;6.90;;
5135;SDS011;2586;48.710;9.202;2023-02-28T09:32:23;10.17;;;6.90;;
5135;SDS011;2586;48.710;9.202;2023-02-28T09:34:48;8.30;;;6.13;;
5135;SDS011;2586;48.710;9.202;2023-02-28T09:37:14;9.87;;;7.27;;
5135;SDS011;2586;48.710;9.202;2023-02-28T09:39:39;8.70;;;5.57;;
5135;SDS011;2586;48.710;9.202;2023-02-28T09:42:05;11.70;;;5.10;;
5135;SDS011;2586;48.710;9.202;2023-02-28T09:44:43;10.37;;;6.70;;
5135;SDS011;2586;48.710;9.202;2023-02-28T09:47:18;9.73;;;6.63;;
5135;SDS011;2586;48.710;9.202;2023-02-28T09:49:58;16.83;;;7.00;;
5135;SDS011;2586;48.710;9.202;2023-02-28T09:52:45;12.03;;;5.90;;
5135;SDS011;2586;48.710;9.202;2023-02-28T09:57:43;16.47;;;6.37;;
5135;SDS011;2586;48.710;9.202;2023-02-28T10:00:32;12.50;;;6.10;;
5135;SDS011;2586;48.710;9.202;2023-02-28T10:08:06;13.10;;;6.97;;
5135;SDS011;2586;48.710;9.202;2023-02-28T10:10:42;13.47;;;6.63;;
5135;SDS011;2586;48.710;9.202;2023-02-28T10:13:20;11.23;;;6.23;;
5135;SDS011;2586;48.710;9.202;2023-02-28T10:15:53;10.70;;;7.37;;
5135;SDS011;2586;48.710;9.202;2023-02-28T10:18:27;11.93;;;6.50;;
5135;SDS011;2586;48.710;9.202;2023-02-28T10:21:04;9.77;;;5.97;;
5135;SDS011;2586;48.710;9.202;2023-02-28T10:23:36;9.37;;;6.10;;
5135;SDS011;2586;48.710;9.202;2023-02-28T10:26:10;9.00;;;6.20;;
5135;SDS011;2586;48.710;9.202;2023-02-28T10:28:38;11.27;;;6.40;;
5135;SDS011;2586;48.710;9.202;2023-02-28T10:31:04;9.30;;;7.10;;
5135;SDS011;2586;48.710;9.202;2023-02-28T10:33:33;10.63;;;6.73;;
5135;SDS011;2586;48.710;9.202;2023-02-28T10:36:00;13.37;;;6.43;;
5135;SDS011;2586;48.710;9.202;2023-02-28T10:38:31;10.50;;;6.43;;
5135;SDS011;2586;48.710;9.202;2023-02-28T10:43:40;9.57;;;6.60;;
5135;SDS011;2586;48.710;9.202;2023-02-28T10:48:39;13.10;;;6.57;;
5135;SDS011;2586;48.710;9.202;2023-02-28T10:51:14;9.90;;;6.33;;
5135;SDS011;2586;48.710;9.202;2023-02-28T10:53:48;9.20;;;6.83;;
5135;SDS011;2586;48.710;9.202;2023-02-28T10:56:23;9.13;;;6.60;;
5135;SDS011;2586;48.710;9.202;2023-02-28T11:01:26;7.33;;;5.33;;
5135;SDS011;2586;48.710;9.202;2023-02-28T11:03:59;9.07;;;6.20;;
5135;SDS011;2586;48.710;9.202;2023-02-28T11:06:26;8.17;;;5.67;;
5135;SDS011;2586;48.710;9.202;2023-02-28T11:08:58;7.10;;;5.80;;
5135;SDS011;2586;48.710;9.202;2023-02-28T11:11:46;7.60;;;5.77;;
5135;SDS011;2586;48.710;9.202;2023-02-28T11:14:27;9.03;;;5.90;;
5135;SDS011;2586;48.710;9.202;2023-02-28T11:16:54;11.90;;;6.53;;
5135;SDS011;2586;48.710;9.202;2023-02-28T11:19:39;11.80;;;6.27;;
5135;SDS011;2586;48.710;9.202;2023-02-28T11:22:10;8.20;;;6.33;;
5135;SDS011;2586;48.710;9.202;2023-02-28T11:24:47;15.40;;;6.00;;
5135;SDS011;2586;48.710;9.202;2023-02-28T11:29:55;8.30;;;5.83;;
5135;SDS011;2586;48.710;9.202;2023-02-28T11:32:25;7.80;;;6.37;;
5135;SDS011;2586;48.710;9.202;2023-02-28T11:35:04;8.70;;;6.10;;
5135;SDS011;2586;48.710;9.202;2023-02-28T11:37:44;10.37;;;6.10;;
5135;SDS011;2586;48.710;9.202;2023-02-28T11:40:14;8.73;;;6.03;;
5135;SDS011;2586;48.710;9.202;2023-02-28T11:42:50;9.23;;;7.17;;
5135;SDS011;2586;48.710;9.202;2023-02-28T11:51:48;10.53;;;7.13;;
5135;SDS011;2586;48.710;9.202;2023-02-28T11:54:23;8.50;;;5.23;;
5135;SDS011;2586;48.710;9.202;2023-02-28T11:56:51;9.23;;;6.20;;
5135;SDS011;2586;48.710;9.202;2023-02-28T12:05:14;10.13;;;7.20;;
5135;SDS011;2586;48.710;9.202;2023-02-28T12:10:44;7.50;;;5.97;;
5135;SDS011;2586;48.710;9.202;2023-02-28T12:16:29;10.33;;;5.63;;
5135;SDS011;2586;48.710;9.202;2023-02-28T12:19:23;9.53;;;6.40;;
5135;SDS011;2586;48.710;9.202;2023-02-28T12:27:32;8.73;;;6.10;;
5135;SDS011;2586;48.710;9.202;2023-02-28T12:30:16;6.97;;;5.30;;
5135;SDS011;2586;48.710;9.202;2023-02-28T12:32:47;8.70;;;6.63;;
5135;SDS011;2586;48.710;9.202;2023-02-28T12:35:34;7.70;;;6.20;;
5135;SDS011;2586;48.710;9.202;2023-02-28T12:38:10;6.40;;;5.70;;
5135;SDS011;2586;48.710;9.202;2023-02-28T12:40:50;7.80;;;5.83;;
5135;SDS011;2586;48.710;9.202;2023-02-28T12:43:19;7.43;;;5.43;;
5135;SDS011;2586;48.710;9.202;2023-02-28T12:48:27;7.63;;;5.97;;
5135;SDS011;2586;48.710;9.202;2023-02-28T12:50:55;6.17;;;5.57;;
5135;SDS011;2586;48.710;9.202;2023-02-28T12:54:04;6.57;;;5.23;;
5135;SDS011;2586;48.710;9.202;2023-02-28T13:09:55;11.20;;;6.73;;
5135;SDS011;2586;48.710;9.202;2023-02-28T13:12:22;9.83;;;6.53;;
5135;SDS011;2586;48.710;9.202;2023-02-28T13:14:49;7.30;;;6.07;;
5135;SDS011;2586;48.710;9.202;2023-02-28T13:17:26;8.30;;;6.93;;
5135;SDS011;2586;48.710;9.202;2023-02-28T13:22:37;6.73;;;6.00;;
5135;SDS011;2586;48.710;9.202;2023-02-28T13:28:11;7.53;;;6.83;;
5135;SDS011;2586;48.710;9.202;2023-02-28T13:33:33;6.87;;;6.20;;
5135;SDS011;2586;48.710;9.202;2023-02-28T13:43:59;10.93;;;6.50;;
5135;SDS011;2586;48.710;9.202;2023-02-28T13:46:34;11.03;;;6.83;;
5135;SDS011;2586;48.710;9.202;2023-02-28T14:03:12;7.93;;;6.50;;
5135;SDS011;2586;48.710;9.202;2023-02-28T14:05:39;6.47;;;5.87;;
5135;SDS011;2586;48.710;9.202;2023-02-28T14:08:08;10.53;;;6.20;;
5135;SDS011;2586;48.710;9.202;2023-02-28T14:10:43;9.60;;;7.20;;
5135;SDS011;2586;48.710;9.202;2023-02-28T14:13:17;6.87;;;5.83;;
5135;SDS011;2586;48.710;9.202;2023-02-28T14:16:04;10.93;;;6.80;;
5135;SDS011;2586;48.710;9.202;2023-02-28T14:18:32;7.23;;;6.13;;
5135;SDS011;2586;48.710;9.202;2023-02-28T14:21:10;8.07;;;6.00;;
5135;SDS011;2586;48.710;9.202;2023-02-28T14:29:36;11.00;;;6.53;;
5135;SDS011;2586;48.710;9.202;2023-02-28T14:37:46;8.33;;;6.10;;
5135;SDS011;2586;48.710;9.202;2023-02-28T14:40:32;9.17;;;7.03;;
5135;SDS011;2586;48.710;9.202;2023-02-28T14:43:01;12.03;;;7.77;;
5135;SDS011;2586;48.710;9.202;2023-02-28T14:45:29;11.53;;;6.40;;
5135;SDS011;2586;48.710;9.202;2023-02-28T14:47:56;7.30;;;6.30;;
5135;SDS011;2586;48.710;9.202;2023-02-28T14:50:33;7.27;;;6.40;;
5135;SDS011;2586;48.710;9.202;2023-02-28T14:53:01;9.87;;;6.13;;
5135;SDS011;2586;48.710;9.202;2023-02-28T14:55:31;10.30;;;7.07;;
5135;SDS011;2586;48.710;9.202;2023-02-28T14:58:01;7.33;;;6.63;;
5135;SDS011;2586;48.710;9.202;2023-02-28T15:00:33;7.90;;;5.80;;
5135;SDS011;2586;48.710;9.202;2023-02-28T15:03:13;9.13;;;6.07;;
5135;SDS011;2586;48.710;9.202;2023-02-28T15:05:58;8.57;;;6.33;;
5135;SDS011;2586;48.710;9.202;2023-02-28T15:08:29;7.50;;;6.63;;
5135;SDS011;2586;48.710;9.202;2023-02-28T15:11:04;8.03;;;6.17;;
5135;SDS011;2586;48.710;9.202;2023-02-28T15:13:40;6.80;;;6.17;;
5135;SDS011;2586;48.710;9.202;2023-02-28T15:16:08;10.33;;;6.13;;
5135;SDS011;2586;48.710;9.202;2023-02-28T15:19:00;9.57;;;6.83;;
5135;SDS011;2586;48.710;9.202;2023-02-28T15:21:31;10.70;;;6.37;;
5135;SDS011;2586;48.710;9.202;2023-02-28T15:24:00;9.70;;;6.10;;
5135;SDS011;2586;48.710;9.202;2023-02-28T15:26:30;10.20;;;6.40;;
5135;SDS011;2586;48.710;9.202;2023-02-28T15:29:00;8.60;;;7.07;;
5135;SDS011;2586;48.710;9.202;2023-02-28T15:31:29;9.53;;;6.50;;
5135;SDS011;2586;48.710;9.202;2023-02-28T15:33:58;8.10;;;5.90;;
5135;SDS011;2586;48.710;9.202;2023-02-28T15:36:30;8.90;;;6.40;;
5135;SDS011;2586;48.710;9.202;2023-02-28T15:38:58;6.63;;;6.03;;
5135;SDS011;2586;48.710;9.202;2023-02-28T15:41:26;11.53;;;7.23;;
5135;SDS011;2586;48.710;9.202;2023-02-28T15:49:26;8.93;;;6.87;;
5135;SDS011;2586;48.710;9.202;2023-02-28T15:51:56;10.10;;;6.00;;
5135;SDS011;2586;48.710;9.202;2023-02-28T15:54:27;11.73;;;6.70;;
5135;SDS011;2586;48.710;9.202;2023-02-28T15:56:58;8.87;;;5.80;;
5135;SDS011;2586;48.710;9.202;2023-02-28T15:59:31;8.40;;;7.20;;
5135;SDS011;2586;48.710;9.202;2023-02-28T16:07:29;13.47;;;6.43;;
5135;SDS011;2586;48.710;9.202;2023-02-28T16:09:55;11.33;;;7.00;;
5135;SDS011;2586;48.710;9.202;2023-02-28T16:12:20;9.47;;;6.90;;
5135;SDS011;2586;48.710;9.202;2023-02-28T16:14:52;8.80;;;7.20;;
5135;SDS011;2586;48.710;9.202;2023-02-28T16:17:26;7.50;;;6.43;;
5135;SDS011;2586;48.710;9.202;2023-02-28T16:19:54;8.73;;;5.97;;
5135;SDS011;2586;48.710;9.202;2023-02-28T16:22:23;7.93;;;6.43;;
5135;SDS011;2586;48.710;9.202;2023-02-28T16:24:48;7.83;;;6.50;;
5135;SDS011;2586;48.710;9.202;2023-02-28T16:27:16;7.00;;;6.07;;
5135;SDS011;2586;48.710;9.202;2023-02-28T16:30:15;9.43;;;6.93;;
5135;SDS011;2586;48.710;9.202;2023-02-28T16:32:51;9.00;;;7.97;;
5135;SDS011;2586;48.710;9.202;2023-02-28T16:35:18;16.20;;;7.23;;
5135;SDS011;2586;48.710;9.202;2023-02-28T16:37:44;11.20;;;7.90;;
5135;SDS011;2586;48.710;9.202;2023-02-28T16:40:21;14.33;;;8.20;;
5135;SDS011;2586;48.710;9.202;2023-02-28T16:42:50;7.20;;;6.10;;
5135;SDS011;2586;48.710;9.202;2023-02-28T16:45:20;11.63;;;7.50;;
5135;SDS011;2586;48.710;9.202;2023-02-28T16:47:47;11.13;;;6.80;;
5135;SDS011;2586;48.710;9.202;2023-02-28T16:50:23;7.70;;;6.50;;
5135;SDS011;2586;48.710;9.202;2023-02-28T16:52:50;11.93;;;7.30;;
5135;SDS011;2586;48.710;9.202;2023-02-28T16:55:20;8.67;;;7.70;;
5135;SDS011;2586;48.710;9.202;2023-02-28T16:57:56;9.53;;;6.50;;
5135;SDS011;2586;48.710;9.202;2023-02-28T17:00:24;12.00;;;7.60;;
5135;SDS011;2586;48.710;9.202;2023-02-28T17:02:51;13.53;;;7.80;;
5135;SDS011;2586;48.710;9.202;2023-02-28T17:05:17;11.00;;;7.07;;
5135;SDS011;2586;48.710;9.202;2023-02-28T17:07:44;17.37;;;9.00;;
5135;SDS011;2586;48.710;9.202;2023-02-28T17:10:14;11.33;;;7.67;;
5135;SDS011;2586;48.710;9.202;2023-02-28T17:12:44;12.30;;;8.00;;
5135;SDS011;2586;48.710;9.202;2023-02-28T17:15:10;15.97;;;7.40;;
5135;SDS011;2586;48.710;9.202;2023-02-28T17:17:37;12.30;;;7.87;;
5135;SDS011;2586;48.710;9.202;2023-02-28T17:20:03;15.33;;;9.40;;
5135;SDS011;2586;48.710;9.202;2023-02-28T17:22:30;10.30;;;7.27;;
5135;SDS011;2586;48.710;9.202;2023-02-28T17:24:56;12.73;;;8.07;;
5135;SDS011;2586;48.710;9.202;2023-02-28T17:27:22;12.03;;;7.57;;
5135;SDS011;2586;48.710;9.202;2023-02-28T17:29:48;11.70;;;7.80;;
5135;SDS011;2586;48.710;9.202;2023-02-28T17:32:13;14.50;;;7.97;;
5135;SDS011;2586;48.710;9.202;2023-02-28T17:34:39;13.40;;;8.37;;
5135;SDS011;2586;48.710;9.202;2023-02-28T17:37:05;14.23;;;7.50;;
5135;SDS011;2586;48.710;9.202;2023-02-28T17:39:30;13.63;;;7.83;;
5135;SDS011;2586;48.710;9.202;2023-02-28T17:41:56;12.40;;;7.73;;
5135;SDS011;2586;48.710;9.202;2023-02-28T17:44:22;12.43;;;7.70;;
5135;SDS011;2586;48.710;9.202;2023-02-28T17:46:49;11.50;;;8.00;;
5135;SDS011;2586;48.710;9.202;2023-02-28T17:49:15;11.93;;;8.53;;